sensor_id;sensor_type;location;lat;lon;timestamp;pressure;altitude;pressure_sealevel;temperature;humidity
68226;BME280;55045;49.410;11.030;2023-03-22T00:00:06;97921.38;;;8.81;100.00
68226;BME280;55045;49.410;11.030;2023-03-22T00:03:13;97896.31;;;8.62;100.00
68226;BME280;55045;49.410;11.030;2023-03-22T00:06:18;97921.50;;;8.78;100.00
68226;BME280;55045;49.410;11.030;2023-03-22T00:09:22;97907.69;;;8.79;100.00
68226;BME280;55045;49.410;11.030;2023-03-22T00:12:25;97907.13;;;8.91;100.00
68226;BME280;55045;49.410;11.030;2023-03-22T00:15:28;97905.19;;;8.57;100.00
68226;BME280;55045;49.410;11.030;2023-03-22T00:18:31;97909.59;;;8.55;100.00
68226;BME280;55045;49.410;11.030;2023-03-22T00:21:36;97907.66;;;8.60;100.00
68226;BME280;55045;49.410;11.030;2023-03-22T00:24:39;97903.31;;;8.60;100.00
68226;BME280;55045;49.410;11.030;2023-03-22T00:27:42;97906.22;;;8.53;100.00
68226;BME280;55045;49.410;11.030;2023-03-22T00:30:53;97908.66;;;8.56;100.00
68226;BME280;55045;49.410;11.030;2023-03-22T00:33:56;97903.19;;;8.43;100.00
68226;BME280;55045;49.410;11.030;2023-03-22T00:37:01;97896.13;;;8.26;100.00
68226;BME280;55045;49.410;11.030;2023-03-22T00:40:05;97899.91;;;8.40;100.00
68226;BME280;55045;49.410;11.030;2023-03-22T00:43:09;97895.22;;;8.27;100.00
68226;BME280;55045;49.410;11.030;2023-03-22T00:46:13;97897.09;;;8.03;100.00
68226;BME280;55045;49.410;11.030;2023-03-22T00:49:17;97898.19;;;7.98;100.00
68226;BME280;55045;49.410;11.030;2023-03-22T00:52:22;97903.81;;;7.87;100.00
68226;BME280;55045;49.410;11.030;2023-03-22T00:55:25;97896.06;;;7.87;100.00
68226;BME280;55045;49.410;11.030;2023-03-22T00:58:28;97897.78;;;7.66;100.00
68226;BME280;55045;49.410;11.030;2023-03-22T01:01:32;97902.94;;;7.66;100.00
68226;BME280;55045;49.410;11.030;2023-03-22T01:04:36;97894.38;;;7.64;100.00
68226;BME280;55045;49.410;11.030;2023-03-22T01:07:42;97895.91;;;7.70;100.00
68226;BME280;55045;49.410;11.030;2023-03-22T01:10:45;97895.22;;;7.65;100.00
68226;BME280;55045;49.410;11.030;2023-03-22T01:13:50;97889.50;;;7.58;100.00
68226;BME280;55045;49.410;11.030;2023-03-22T01:16:54;97883.94;;;7.45;100.00
68226;BME280;55045;49.410;11.030;2023-03-22T01:19:58;97886.78;;;7.39;100.00
68226;BME280;55045;49.410;11.030;2023-03-22T01:23:04;97881.97;;;7.52;100.00
68226;BME280;55045;49.410;11.030;2023-03-22T01:26:07;97880.25;;;7.31;100.00
68226;BME280;55045;49.410;11.030;2023-03-22T01:29:11;97878.97;;;7.41;100.00
68226;BME280;55045;49.410;11.030;2023-03-22T01:32:14;97882.97;;;7.04;100.00
68226;BME280;55045;49.410;11.030;2023-03-22T01:35:17;97884.06;;;7.20;100.00
68226;BME280;55045;49.410;11.030;2023-03-22T01:38:22;97874.34;;;6.82;100.00
68226;BME280;55045;49.410;11.030;2023-03-22T01:41:30;97875.47;;;6.98;100.00
68226;BME280;55045;49.410;11.030;2023-03-22T01:44:42;97872.44;;;6.63;100.00
68226;BME280;55045;49.410;11.030;2023-03-22T01:47:50;97877.00;;;6.57;100.00
68226;BME280;55045;49.410;11.030;2023-03-22T01:51:03;97869.00;;;6.64;100.00
68226;BME280;55045;49.410;11.030;2023-03-22T01:54:17;97872.13;;;6.96;100.00
68226;BME280;55045;49.410;11.030;2023-03-22T01:57:25;97865.31;;;6.93;100.00
68226;BME280;55045;49.410;11.030;2023-03-22T02:00:29;97864.44;;;6.71;100.00
68226;BME280;55045;49.410;11.030;2023-03-22T02:04:05;97868.13;;;6.64;100.00
68226;BME280;55045;49.410;11.030;2023-03-22T02:07:14;97866.91;;;6.98;100.00
68226;BME280;55045;49.410;11.030;2023-03-22T02:10:29;97859.50;;;6.88;100.00
68226;BME280;55045;49.410;11.030;2023-03-22T02:13:37;97856.00;;;7.13;100.00
68226;BME280;55045;49.410;11.030;2023-03-22T02:17:22;97858.63;;;6.66;100.00
68226;BME280;55045;49.410;11.030;2023-03-22T02:20:54;97853.59;;;7.08;100.00
68226;BME280;55045;49.410;11.030;2023-03-22T02:24:31;97859.50;;;6.88;100.00
68226;BME280;55045;49.410;11.030;2023-03-22T02:28:04;97860.56;;;6.83;100.00
68226;BME280;55045;49.410;11.030;2023-03-22T02:31:26;97858.44;;;6.94;100.00
68226;BME280;55045;49.410;11.030;2023-03-22T02:34:43;97854.28;;;6.90;100.00
68226;BME280;55045;49.410;11.030;2023-03-22T02:41:42;97852.41;;;7.17;100.00
68226;BME280;55045;49.410;11.030;2023-03-22T02:44:55;97842.25;;;7.34;100.00
68226;BME280;55045;49.410;11.030;2023-03-22T02:48:05;97857.38;;;7.21;100.00
68226;BME280;55045;49.410;11.030;2023-03-22T02:51:14;97849.34;;;6.84;100.00
68226;BME280;55045;49.410;11.030;2023-03-22T02:54:22;97844.13;;;7.09;100.00
68226;BME280;55045;49.410;11.030;2023-03-22T02:57:34;97845.91;;;6.85;100.00
68226;BME280;55045;49.410;11.030;2023-03-22T03:00:39;97844.47;;;6.54;100.00
68226;BME280;55045;49.410;11.030;2023-03-22T03:03:46;97838.75;;;6.46;100.00
68226;BME280;55045;49.410;11.030;2023-03-22T03:06:53;97768.06;;;6.06;100.00
68226;BME280;55045;49.410;11.030;2023-03-22T03:09:57;97840.03;;;6.58;100.00
68226;BME280;55045;49.410;11.030;2023-03-22T03:13:02;97843.50;;;6.57;100.00
68226;BME280;55045;49.410;11.030;2023-03-22T03:16:06;97832.84;;;6.43;100.00
68226;BME280;55045;49.410;11.030;2023-03-22T03:19:14;97842.75;;;6.53;100.00
68226;BME280;55045;49.410;11.030;2023-03-22T03:22:32;97844.53;;;6.28;100.00
68226;BME280;55045;49.410;11.030;2023-03-22T03:25:44;97842.53;;;6.11;100.00
68226;BME280;55045;49.410;11.030;2023-03-22T03:28:54;97840.41;;;5.99;100.00
68226;BME280;55045;49.410;11.030;2023-03-22T03:32:03;97842.09;;;6.00;100.00
68226;BME280;55045;49.410;11.030;2023-03-22T03:35:14;97841.09;;;6.04;100.00
68226;BME280;55045;49.410;11.030;2023-03-22T03:38:25;97842.53;;;6.11;100.00
68226;BME280;55045;49.410;11.030;2023-03-22T03:41:30;97847.28;;;5.98;100.00
68226;BME280;55045;49.410;11.030;2023-03-22T03:44:37;97843.94;;;5.96;100.00
68226;BME280;55045;49.410;11.030;2023-03-22T03:47:41;97850.31;;;6.10;100.00
68226;BME280;55045;49.410;11.030;2023-03-22T03:50:46;97847.91;;;5.78;100.00
68226;BME280;55045;49.410;11.030;2023-03-22T03:53:51;97842.25;;;5.69;100.00
68226;BME280;55045;49.410;11.030;2023-03-22T03:56:56;97837.69;;;5.77;100.00
68226;BME280;55045;49.410;11.030;2023-03-22T04:00:00;97842.00;;;5.76;100.00
68226;BME280;55045;49.410;11.030;2023-03-22T04:03:23;97842.00;;;5.76;100.00
68226;BME280;55045;49.410;11.030;2023-03-22T04:06:45;97844.59;;;6.01;100.00
68226;BME280;55045;49.410;11.030;2023-03-22T04:09:53;97775.53;;;5.11;100.00
68226;BME280;55045;49.410;11.030;2023-03-22T04:13:01;97843.97;;;6.20;100.00
68226;BME280;55045;49.410;11.030;2023-03-22T04:16:07;97847.00;;;5.55;100.00
68226;BME280;55045;49.410;11.030;2023-03-22T04:19:12;97858.44;;;5.46;100.00
68226;BME280;55045;49.410;11.030;2023-03-22T04:22:15;97861.22;;;5.38;100.00
68226;BME280;55045;49.410;11.030;2023-03-22T04:25:19;97860.53;;;5.86;100.00
68226;BME280;55045;49.410;11.030;2023-03-22T04:28:32;97856.75;;;5.45;100.00
68226;BME280;55045;49.410;11.030;2023-03-22T04:34:11;97856.31;;;5.31;100.00
68226;BME280;55045;49.410;11.030;2023-03-22T04:37:23;97860.59;;;5.32;100.00
68226;BME280;55045;49.410;11.030;2023-03-22T04:40:45;97857.69;;;5.42;100.00
68226;BME280;55045;49.410;11.030;2023-03-22T04:43:54;97853.28;;;5.46;100.00
68226;BME280;55045;49.410;11.030;2023-03-22T04:46:58;97853.97;;;5.77;100.00
68226;BME280;55045;49.410;11.030;2023-03-22T04:50:04;97853.28;;;5.46;100.00
68226;BME280;55045;49.410;11.030;2023-03-22T04:53:11;97855.44;;;5.58;100.00
68226;BME280;55045;49.410;11.030;2023-03-22T04:56:17;97853.00;;;5.27;100.00
68226;BME280;55045;49.410;11.030;2023-03-22T04:59:24;97860.44;;;5.36;100.00
68226;BME280;55045;49.410;11.030;2023-03-22T05:02:27;97855.88;;;5.18;100.00
68226;BME280;55045;49.410;11.030;2023-03-22T05:05:32;97859.09;;;5.25;100.00
68226;BME280;55045;49.410;11.030;2023-03-22T05:08:37;97862.22;;;5.06;100.00
68226;BME280;55045;49.410;11.030;2023-03-22T05:11:40;97869.63;;;5.17;100.00
68226;BME280;55045;49.410;11.030;2023-03-22T05:15:03;97858.25;;;5.24;100.00
68226;BME280;55045;49.410;11.030;2023-03-22T05:18:10;97859.44;;;5.14;100.00
68226;BME280;55045;49.410;11.030;2023-03-22T05:21:17;97846.38;;;5.20;100.00
68226;BME280;55045;49.410;11.030;2023-03-22T05:24:28;97847.13;;;5.24;100.00
68226;BME280;55045;49.410;11.030;2023-03-22T05:27:32;97845.81;;;5.38;100.00
68226;BME280;55045;49.410;11.030;2023-03-22T05:31:08;97852.03;;;5.31;100.00
68226;BME280;55045;49.410;11.030;2023-03-22T05:34:18;97852.00;;;5.33;100.00
68226;BME280;55045;49.410;11.030;2023-03-22T05:37:24;97843.72;;;5.23;100.00
68226;BME280;55045;49.410;11.030;2023-03-22T05:40:30;97846.63;;;5.39;100.00
68226;BME280;55045;49.410;11.030;2023-03-22T05:43:34;97851.78;;;5.39;100.00
68226;BME280;55045;49.410;11.030;2023-03-22T05:46:37;97844.47;;;5.27;100.00
68226;BME280;55045;49.410;11.030;2023-03-22T05:50:00;97845.00;;;5.36;100.00
68226;BME280;55045;49.410;11.030;2023-03-22T05:53:06;97840.25;;;5.50;100.00
68226;BME280;55045;49.410;11.030;2023-03-22T05:56:27;97841.63;;;5.61;100.00
68226;BME280;55045;49.410;11.030;2023-03-22T05:59:38;97829.97;;;5.50;100.00
68226;BME280;55045;49.410;11.030;2023-03-22T06:02:47;97830.97;;;5.46;100.00
68226;BME280;55045;49.410;11.030;2023-03-22T06:05:51;97839.38;;;5.52;100.00
68226;BME280;55045;49.410;11.030;2023-03-22T06:09:05;97837.78;;;5.47;100.00
68226;BME280;55045;49.410;11.030;2023-03-22T06:12:20;97832.94;;;5.65;100.00
68226;BME280;55045;49.410;11.030;2023-03-22T06:15:35;97828.78;;;5.61;100.00
68226;BME280;55045;49.410;11.030;2023-03-22T06:18:40;97827.19;;;5.83;100.00
68226;BME280;55045;49.410;11.030;2023-03-22T06:21:47;97828.22;;;6.04;100.00
68226;BME280;55045;49.410;11.030;2023-03-22T06:24:53;97828.47;;;6.21;100.00
68226;BME280;55045;49.410;11.030;2023-03-22T06:28:05;97836.81;;;6.28;100.00
68226;BME280;55045;49.410;11.030;2023-03-22T06:31:11;97827.69;;;6.43;100.00
68226;BME280;55045;49.410;11.030;2023-03-22T06:34:35;97826.06;;;6.63;100.00
68226;BME280;55045;49.410;11.030;2023-03-22T06:37:41;97822.03;;;6.80;100.00
68226;BME280;55045;49.410;11.030;2023-03-22T06:40:46;97817.97;;;6.96;100.00
68226;BME280;55045;49.410;11.030;2023-03-22T06:43:49;97801.91;;;7.11;100.00
68226;BME280;55045;49.410;11.030;2023-03-22T06:47:14;97796.19;;;7.25;100.00
68226;BME280;55045;49.410;11.030;2023-03-22T06:50:45;97784.50;;;7.59;100.00
68226;BME280;55045;49.410;11.030;2023-03-22T06:53:53;97781.66;;;7.65;100.00
68226;BME280;55045;49.410;11.030;2023-03-22T06:56:58;97779.88;;;7.87;100.00
68226;BME280;55045;49.410;11.030;2023-03-22T07:00:01;97787.63;;;8.06;100.00
68226;BME280;55045;49.410;11.030;2023-03-22T07:03:06;97785.31;;;8.20;100.00
68226;BME280;55045;49.410;11.030;2023-03-22T07:06:15;97776.41;;;8.46;100.00
68226;BME280;55045;49.410;11.030;2023-03-22T07:09:23;97780.75;;;8.64;100.00
68226;BME280;55045;49.410;11.030;2023-03-22T07:12:32;97772.34;;;8.78;100.00
68226;BME280;55045;49.410;11.030;2023-03-22T07:15:42;97772.91;;;9.04;100.00
68226;BME280;55045;49.410;11.030;2023-03-22T07:19:07;97783.50;;;9.16;100.00
68226;BME280;55045;49.410;11.030;2023-03-22T07:22:11;97776.72;;;9.14;100.00
68226;BME280;55045;49.410;11.030;2023-03-22T07:25:16;97784.06;;;9.23;100.00
68226;BME280;55045;49.410;11.030;2023-03-22T07:28:23;97763.38;;;9.75;100.00
68226;BME280;55045;49.410;11.030;2023-03-22T07:31:28;97777.34;;;10.05;100.00
68226;BME280;55045;49.410;11.030;2023-03-22T07:34:41;97777.19;;;10.26;100.00
68226;BME280;55045;49.410;11.030;2023-03-22T07:37:49;97779.22;;;10.19;100.00
68226;BME280;55045;49.410;11.030;2023-03-22T07:41:00;97781.31;;;10.61;100.00
68226;BME280;55045;49.410;11.030;2023-03-22T07:44:21;97768.50;;;11.21;100.00
68226;BME280;55045;49.410;11.030;2023-03-22T07:47:46;97762.34;;;10.92;100.00
68226;BME280;55045;49.410;11.030;2023-03-22T07:50:54;97766.31;;;11.30;100.00
68226;BME280;55045;49.410;11.030;2023-03-22T07:53:59;97765.00;;;11.82;100.00
68226;BME280;55045;49.410;11.030;2023-03-22T07:57:03;97752.91;;;11.37;100.00
68226;BME280;55045;49.410;11.030;2023-03-22T08:00:13;97753.94;;;11.79;100.00
68226;BME280;55045;49.410;11.030;2023-03-22T08:03:23;97762.16;;;11.87;100.00
68226;BME280;55045;49.410;11.030;2023-03-22T08:06:34;97748.06;;;12.48;100.00
68226;BME280;55045;49.410;11.030;2023-03-22T08:09:38;97750.75;;;12.32;100.00
68226;BME280;55045;49.410;11.030;2023-03-22T08:12:41;97756.41;;;12.53;100.00
68226;BME280;55045;49.410;11.030;2023-03-22T08:15:56;97750.94;;;12.85;100.00
68226;BME280;55045;49.410;11.030;2023-03-22T08:19:00;97747.00;;;12.65;100.00
68226;BME280;55045;49.410;11.030;2023-03-22T08:22:05;97749.22;;;13.39;100.00
68226;BME280;55045;49.410;11.030;2023-03-22T08:25:29;97754.34;;;13.00;100.00
68226;BME280;55045;49.410;11.030;2023-03-22T08:28:41;97750.50;;;13.05;100.00
68226;BME280;55045;49.410;11.030;2023-03-22T08:31:46;97748.28;;;13.40;100.00
68226;BME280;55045;49.410;11.030;2023-03-22T08:34:49;97755.97;;;13.15;100.00
68226;BME280;55045;49.410;11.030;2023-03-22T08:37:53;97754.19;;;13.82;100.00
68226;BME280;55045;49.410;11.030;2023-03-22T08:41:01;97752.84;;;13.37;100.00
68226;BME280;55045;49.410;11.030;2023-03-22T08:44:05;97751.69;;;13.93;100.00
68226;BME280;55045;49.410;11.030;2023-03-22T08:47:11;97720.09;;;13.72;100.00
68226;BME280;55045;49.410;11.030;2023-03-22T08:50:16;97748.88;;;13.83;100.00
68226;BME280;55045;49.410;11.030;2023-03-22T08:53:26;97742.38;;;13.64;100.00
68226;BME280;55045;49.410;11.030;2023-03-22T08:56:45;97743.31;;;13.75;100.00
68226;BME280;55045;49.410;11.030;2023-03-22T09:00:09;97742.03;;;13.55;100.00
68226;BME280;55045;49.410;11.030;2023-03-22T09:03:23;97753.69;;;13.90;100.00
68226;BME280;55045;49.410;11.030;2023-03-22T09:06:27;97736.22;;;13.52;100.00
68226;BME280;55045;49.410;11.030;2023-03-22T09:09:30;97744.59;;;13.95;100.00
68226;BME280;55045;49.410;11.030;2023-03-22T09:12:34;97740.09;;;13.72;100.00
68226;BME280;55045;49.410;11.030;2023-03-22T09:15:37;97744.16;;;13.76;100.00
68226;BME280;55045;49.410;11.030;2023-03-22T09:18:57;97736.88;;;14.06;100.00
68226;BME280;55045;49.410;11.030;2023-03-22T09:22:00;97728.75;;;14.11;100.00
68226;BME280;55045;49.410;11.030;2023-03-22T09:25:13;97733.44;;;14.19;100.00
68226;BME280;55045;49.410;11.030;2023-03-22T09:28:19;97730.19;;;14.28;100.00
68226;BME280;55045;49.410;11.030;2023-03-22T09:31:22;97732.19;;;14.11;100.00
68226;BME280;55045;49.410;11.030;2023-03-22T09:34:40;97736.88;;;14.06;100.00
68226;BME280;55045;49.410;11.030;2023-03-22T09:37:43;97722.78;;;14.47;100.00
68226;BME280;55045;49.410;11.030;2023-03-22T09:40:51;97732.41;;;14.21;100.00
68226;BME280;55045;49.410;11.030;2023-03-22T09:44:06;97732.50;;;14.45;100.00
68226;BME280;55045;49.410;11.030;2023-03-22T09:47:15;97726.78;;;14.77;100.00
68226;BME280;55045;49.410;11.030;2023-03-22T09:50:21;97726.44;;;14.32;100.00
68226;BME280;55045;49.410;11.030;2023-03-22T09:53:27;97714.31;;;14.56;100.00
68226;BME280;55045;49.410;11.030;2023-03-22T09:56:31;97719.56;;;14.31;100.00
68226;BME280;55045;49.410;11.030;2023-03-22T09:59:39;97715.25;;;14.43;100.00
68226;BME280;55045;49.410;11.030;2023-03-22T10:02:52;97714.97;;;13.96;100.00
68226;BME280;55045;49.410;11.030;2023-03-22T10:06:01;97714.22;;;13.69;100.00
68226;BME280;55045;49.410;11.030;2023-03-22T10:09:08;97712.16;;;13.99;100.00
68226;BME280;55045;49.410;11.030;2023-03-22T10:12:18;97698.94;;;14.02;100.00
68226;BME280;55045;49.410;11.030;2023-03-22T10:15:26;97704.09;;;14.28;100.00
68226;BME280;55045;49.410;11.030;2023-03-22T10:18:33;97701.91;;;14.47;100.00
68226;BME280;55045;49.410;11.030;2023-03-22T10:21:39;97694.09;;;14.71;100.00
68226;BME280;55045;49.410;11.030;2023-03-22T10:24:45;97690.88;;;14.67;100.00
68226;BME280;55045;49.410;11.030;2023-03-22T10:27:50;97679.72;;;14.89;100.00
68226;BME280;55045;49.410;11.030;2023-03-22T10:34:17;97680.88;;;15.09;100.00
68226;BME280;55045;49.410;11.030;2023-03-22T10:37:26;97681.09;;;14.58;100.00
68226;BME280;55045;49.410;11.030;2023-03-22T10:40:34;97674.69;;;14.75;100.00
68226;BME280;55045;49.410;11.030;2023-03-22T10:43:39;97673.94;;;14.97;100.00
68226;BME280;55045;49.410;11.030;2023-03-22T10:46:44;97679.19;;;15.32;100.00
68226;BME280;55045;49.410;11.030;2023-03-22T10:49:51;97661.69;;;15.21;100.00
68226;BME280;55045;49.410;11.030;2023-03-22T10:53:02;97658.81;;;15.48;96.77
68226;BME280;55045;49.410;11.030;2023-03-22T10:56:10;97648.22;;;16.07;93.07
68226;BME280;55045;49.410;11.030;2023-03-22T10:59:41;97653.16;;;15.31;94.77
68226;BME280;55045;49.410;11.030;2023-03-22T11:02:50;97648.28;;;15.15;94.01
68226;BME280;55045;49.410;11.030;2023-03-22T11:06:00;97651.16;;;14.99;92.45
68226;BME280;55045;49.410;11.030;2023-03-22T11:09:11;97636.34;;;15.35;94.17
68226;BME280;55045;49.410;11.030;2023-03-22T11:12:14;97647.75;;;15.10;92.06
68226;BME280;55045;49.410;11.030;2023-03-22T11:15:22;97643.94;;;15.38;91.38
68226;BME280;55045;49.410;11.030;2023-03-22T11:18:29;97641.06;;;15.30;89.81
68226;BME280;55045;49.410;11.030;2023-03-22T11:21:34;97644.03;;;15.25;90.70
68226;BME280;55045;49.410;11.030;2023-03-22T11:24:38;97646.88;;;15.68;92.49
68226;BME280;55045;49.410;11.030;2023-03-22T11:27:50;97649.50;;;15.68;89.03
68226;BME280;55045;49.410;11.030;2023-03-22T11:31:00;97640.84;;;15.33;87.81
68226;BME280;55045;49.410;11.030;2023-03-22T11:34:15;97637.88;;;15.37;89.65
68226;BME280;55045;49.410;11.030;2023-03-22T11:37:20;97642.34;;;15.70;93.30
68226;BME280;55045;49.410;11.030;2023-03-22T11:40:26;97633.06;;;15.55;91.24
68226;BME280;55045;49.410;11.030;2023-03-22T11:43:35;97627.88;;;15.31;92.53
68226;BME280;55045;49.410;11.030;2023-03-22T11:46:47;97624.75;;;15.72;87.42
68226;BME280;55045;49.410;11.030;2023-03-22T11:49:52;97621.94;;;15.87;91.95
68226;BME280;55045;49.410;11.030;2023-03-22T11:53:00;97611.19;;;16.23;87.39
68226;BME280;55045;49.410;11.030;2023-03-22T11:56:05;97626.66;;;16.37;87.70
68226;BME280;55045;49.410;11.030;2023-03-22T11:59:13;97611.31;;;16.65;85.38
68226;BME280;55045;49.410;11.030;2023-03-22T12:02:21;97612.16;;;16.22;87.62
68226;BME280;55045;49.410;11.030;2023-03-22T12:05:27;97607.41;;;16.27;88.72
68226;BME280;55045;49.410;11.030;2023-03-22T12:08:39;97609.31;;;16.03;93.19
68226;BME280;55045;49.410;11.030;2023-03-22T12:11:46;97593.63;;;15.92;89.23
68226;BME280;55045;49.410;11.030;2023-03-22T12:14:54;97601.00;;;15.98;91.43
68226;BME280;55045;49.410;11.030;2023-03-22T12:18:02;97602.06;;;16.18;87.64
68226;BME280;55045;49.410;11.030;2023-03-22T12:21:09;97602.56;;;15.89;88.49
68226;BME280;55045;49.410;11.030;2023-03-22T12:24:23;97593.34;;;16.28;83.28
68226;BME280;55045;49.410;11.030;2023-03-22T12:27:30;97591.59;;;15.73;nan
68226;BME280;55045;49.410;11.030;2023-03-22T12:30:39;97579.13;;;15.99;88.28
68226;BME280;55045;49.410;11.030;2023-03-22T12:33:47;97583.97;;;16.26;84.18
68226;BME280;55045;49.410;11.030;2023-03-22T12:36:53;97590.06;;;16.15;84.90
68226;BME280;55045;49.410;11.030;2023-03-22T12:40:02;97588.44;;;16.89;83.34
68226;BME280;55045;49.410;11.030;2023-03-22T12:43:10;97579.75;;;16.46;82.24
68226;BME280;55045;49.410;11.030;2023-03-22T12:46:19;97574.47;;;16.13;82.99
68226;BME280;55045;49.410;11.030;2023-03-22T12:49:28;97567.66;;;16.22;84.06
68226;BME280;55045;49.410;11.030;2023-03-22T12:52:37;97559.63;;;16.57;79.99
68226;BME280;55045;49.410;11.030;2023-03-22T12:55:49;97562.59;;;16.53;81.89
68226;BME280;55045;49.410;11.030;2023-03-22T12:58:56;97569.81;;;16.28;83.68
68226;BME280;55045;49.410;11.030;2023-03-22T13:02:09;97562.94;;;16.16;83.11
68226;BME280;55045;49.410;11.030;2023-03-22T13:05:16;97565.69;;;15.92;80.27
68226;BME280;55045;49.410;11.030;2023-03-22T13:08:21;97559.16;;;15.98;81.04
68226;BME280;55045;49.410;11.030;2023-03-22T13:11:26;97555.06;;;16.27;83.11
68226;BME280;55045;49.410;11.030;2023-03-22T13:14:53;97552.91;;;16.32;82.63
68226;BME280;55045;49.410;11.030;2023-03-22T13:17:59;97523.09;;;16.45;80.17
68226;BME280;55045;49.410;11.030;2023-03-22T13:21:10;97538.44;;;16.17;78.38
68226;BME280;55045;49.410;11.030;2023-03-22T13:24:21;97546.84;;;16.64;79.06
68226;BME280;55045;49.410;11.030;2023-03-22T13:27:34;97546.84;;;16.32;80.89
68226;BME280;55045;49.410;11.030;2023-03-22T13:30:47;97546.72;;;16.65;78.32
68226;BME280;55045;49.410;11.030;2023-03-22T13:33:52;97536.63;;;16.61;77.96
68226;BME280;55045;49.410;11.030;2023-03-22T13:36:56;97538.19;;;16.52;80.77
68226;BME280;55045;49.410;11.030;2023-03-22T13:39:59;97526.28;;;16.27;78.47
68226;BME280;55045;49.410;11.030;2023-03-22T13:43:12;97495.72;;;15.84;77.46
68226;BME280;55045;49.410;11.030;2023-03-22T13:46:43;97518.94;;;16.10;78.66
68226;BME280;55045;49.410;11.030;2023-03-22T13:49:50;97512.75;;;16.11;79.14
68226;BME280;55045;49.410;11.030;2023-03-22T13:52:58;97510.94;;;16.55;80.56
68226;BME280;55045;49.410;11.030;2023-03-22T13:56:05;97515.47;;;16.53;78.53
68226;BME280;55045;49.410;11.030;2023-03-22T13:59:12;97516.63;;;16.92;81.63
68226;BME280;55045;49.410;11.030;2023-03-22T14:02:18;97524.66;;;17.21;78.82
68226;BME280;55045;49.410;11.030;2023-03-22T14:05:25;97512.94;;;16.62;78.23
68226;BME280;55045;49.410;11.030;2023-03-22T14:08:32;97507.13;;;16.59;78.00
68226;BME280;55045;49.410;11.030;2023-03-22T14:11:42;97508.06;;;17.11;78.35
68226;BME280;55045;49.410;11.030;2023-03-22T14:14:52;97508.25;;;16.98;78.27
68226;BME280;55045;49.410;11.030;2023-03-22T14:17:59;97501.72;;;17.13;80.54
68226;BME280;55045;49.410;11.030;2023-03-22T14:21:06;97481.94;;;17.30;78.34
68226;BME280;55045;49.410;11.030;2023-03-22T14:24:12;97490.41;;;17.43;74.90
68226;BME280;55045;49.410;11.030;2023-03-22T14:27:17;97491.88;;;17.67;75.61
68226;BME280;55045;49.410;11.030;2023-03-22T14:30:34;97492.16;;;17.03;75.36
68226;BME280;55045;49.410;11.030;2023-03-22T14:33:39;97498.59;;;16.98;73.75
68226;BME280;55045;49.410;11.030;2023-03-22T14:36:45;97498.00;;;16.95;75.91
68226;BME280;55045;49.410;11.030;2023-03-22T14:39:50;97487.19;;;16.79;78.31
68226;BME280;55045;49.410;11.030;2023-03-22T14:42:52;97485.88;;;16.94;74.87
68226;BME280;55045;49.410;11.030;2023-03-22T14:46:02;97487.13;;;16.58;78.09
68226;BME280;55045;49.410;11.030;2023-03-22T14:49:14;97484.25;;;16.40;79.96
68226;BME280;55045;49.410;11.030;2023-03-22T14:52:19;97470.56;;;16.16;81.09
68226;BME280;55045;49.410;11.030;2023-03-22T14:55:23;97485.69;;;16.33;81.22
68226;BME280;55045;49.410;11.030;2023-03-22T14:58:32;97475.97;;;16.56;80.90
68226;BME280;55045;49.410;11.030;2023-03-22T15:01:38;97473.84;;;16.50;76.40
68226;BME280;55045;49.410;11.030;2023-03-22T15:04:41;97477.34;;;16.71;76.62
68226;BME280;55045;49.410;11.030;2023-03-22T15:07:46;97464.56;;;16.78;74.27
68226;BME280;55045;49.410;11.030;2023-03-22T15:10:50;97435.41;;;16.50;73.38
68226;BME280;55045;49.410;11.030;2023-03-22T15:13:54;97470.56;;;16.89;73.31
68226;BME280;55045;49.410;11.030;2023-03-22T15:16:59;97476.06;;;16.86;72.11
68226;BME280;55045;49.410;11.030;2023-03-22T15:20:02;97469.03;;;16.55;71.38
68226;BME280;55045;49.410;11.030;2023-03-22T15:23:12;97469.94;;;16.65;70.78
68226;BME280;55045;49.410;11.030;2023-03-22T15:26:17;97467.09;;;16.47;72.39
68226;BME280;55045;49.410;11.030;2023-03-22T15:29:23;97460.19;;;16.46;70.96
68226;BME280;55045;49.410;11.030;2023-03-22T15:32:29;97462.94;;;16.12;72.59
68226;BME280;55045;49.410;11.030;2023-03-22T15:35:31;97463.75;;;16.13;73.30
68226;BME280;55045;49.410;11.030;2023-03-22T15:38:39;97454.75;;;16.06;75.22
68226;BME280;55045;49.410;11.030;2023-03-22T15:41:42;97455.56;;;16.18;76.03
68226;BME280;55045;49.410;11.030;2023-03-22T15:44:50;97459.47;;;16.12;76.19
68226;BME280;55045;49.410;11.030;2023-03-22T15:48:03;97451.47;;;15.93;78.95
68226;BME280;55045;49.410;11.030;2023-03-22T15:51:05;97448.50;;;15.97;78.59
68226;BME280;55045;49.410;11.030;2023-03-22T15:54:12;97425.94;;;15.85;78.15
68226;BME280;55045;49.410;11.030;2023-03-22T15:57:18;97452.19;;;15.95;79.07
68226;BME280;55045;49.410;11.030;2023-03-22T16:00:23;97445.06;;;15.86;82.52
68226;BME280;55045;49.410;11.030;2023-03-22T16:03:38;97444.88;;;15.66;83.44
68226;BME280;55045;49.410;11.030;2023-03-22T16:06:42;97450.22;;;15.76;83.91
68226;BME280;55045;49.410;11.030;2023-03-22T16:09:44;97435.25;;;15.67;83.71
68226;BME280;55045;49.410;11.030;2023-03-22T16:12:47;97437.00;;;15.77;83.16
68226;BME280;55045;49.410;11.030;2023-03-22T16:15:50;97446.22;;;15.93;83.01
68226;BME280;55045;49.410;11.030;2023-03-22T16:18:54;97445.44;;;15.81;86.18
68226;BME280;55045;49.410;11.030;2023-03-22T16:21:56;97440.97;;;16.04;82.78
68226;BME280;55045;49.410;11.030;2023-03-22T16:24:58;97445.06;;;15.86;84.11
68226;BME280;55045;49.410;11.030;2023-03-22T16:28:01;97437.97;;;15.76;89.40
68226;BME280;55045;49.410;11.030;2023-03-22T16:34:11;97440.22;;;15.59;86.22